Time;durP1;ratioP1;P1;durP2;ratioP2;P2;SDS_P1;SDS_P2;PMS_P1;PMS_P2;Temp;Humidity;BMP_temperature;BMP_pressure;BME280_temperature;BME280_humidity;BME280_pressure;Samples;Min_cycle;Max_cycle;Signal;HPM_P1;HPM_P2
2020/12/02 00:03:03;;;;;;;37.27;21.03;;;;;;;;;;5014067;28;20647;-86
2020/12/02 00:06:08;;;;;;;43.93;22.27;;;;;;;;;;5025727;28;20615;-86
2020/12/02 00:09:16;;;;;;;40.77;22.20;;;;;;;;;;5026083;28;20588;-87
2020/12/02 00:12:21;;;;;;;40.47;22.87;;;;;;;;;;5014027;28;20635;-86
2020/12/02 00:15:25;;;;;;;38.33;21.23;;;;;;;;;;5025097;28;20646;-87
2020/12/02 00:18:30;;;;;;;43.37;22.70;;;;;;;;;;5025105;28;20590;-87
2020/12/02 00:21:34;;;;;;;41.53;21.80;;;;;;;;;;5014406;28;21109;-86
2020/12/02 00:24:38;;;;;;;43.30;22.67;;;;;;;;;;4990228;28;20591;-86
2020/12/02 00:27:43;;;;;;;42.00;22.13;;;;;;;;;;5017324;28;20552;-86
2020/12/02 00:30:47;;;;;;;41.10;21.97;;;;;;;;;;5013192;28;21073;-86
2020/12/02 00:33:51;;;;;;;46.97;23.07;;;;;;;;;;5002028;28;20642;-86
2020/12/02 00:36:55;;;;;;;41.00;22.27;;;;;;;;;;5023433;28;20635;-86
2020/12/02 00:39:59;;;;;;;43.90;22.73;;;;;;;;;;5024310;28;20610;-88
2020/12/02 00:43:04;;;;;;;41.73;22.13;;;;;;;;;;5012512;28;20657;-86
2020/12/02 00:46:12;;;;;;;37.97;21.90;;;;;;;;;;5033284;28;20583;-86
2020/12/02 00:49:16;;;;;;;43.40;23.03;;;;;;;;;;5012187;28;20614;-87
2020/12/02 00:52:21;;;;;;;41.10;23.00;;;;;;;;;;5022966;28;20658;-87
2020/12/02 00:55:26;;;;;;;40.03;22.03;;;;;;;;;;5011100;28;20599;-86
2020/12/02 00:58:49;;;;;;;44.27;23.30;;;;;;;;;;5011038;28;21157;-86
2020/12/02 01:02:09;;;;;;;43.40;23.20;;;;;;;;;;5010600;28;20583;-86
2020/12/02 01:05:17;;;;;;;43.93;23.77;;;;;;;;;;5023092;28;20595;-86
2020/12/02 01:08:29;;;;;;;47.10;23.60;;;;;;;;;;5000415;28;20950;-86
2020/12/02 01:11:34;;;;;;;47.90;23.87;;;;;;;;;;5022405;28;20598;-87
2020/12/02 01:14:39;;;;;;;48.03;24.40;;;;;;;;;;5002775;28;20595;-86
2020/12/02 01:17:44;;;;;;;50.53;24.13;;;;;;;;;;5022932;28;20635;-86
2020/12/02 01:21:14;;;;;;;52.47;26.53;;;;;;;;;;5011709;28;20590;-87
2020/12/02 01:24:23;;;;;;;48.17;24.50;;;;;;;;;;4991811;28;21082;-88
2020/12/02 01:27:31;;;;;;;49.10;25.53;;;;;;;;;;4987600;28;20591;-87
2020/12/02 01:30:38;;;;;;;50.10;24.70;;;;;;;;;;5020128;28;21180;-87
2020/12/02 01:33:42;;;;;;;48.07;24.93;;;;;;;;;;5010446;28;20658;-87
2020/12/02 01:37:09;;;;;;;54.97;27.10;;;;;;;;;;5010878;28;20619;-86
2020/12/02 01:40:17;;;;;;;53.33;27.63;;;;;;;;;;5033839;28;21116;-86
2020/12/02 01:43:21;;;;;;;54.40;26.90;;;;;;;;;;5009600;28;20662;-87
2020/12/02 01:46:39;;;;;;;56.03;26.10;;;;;;;;;;5034134;28;20562;-86
2020/12/02 01:49:50;;;;;;;58.23;27.23;;;;;;;;;;5008453;28;20634;-86
2020/12/02 01:53:00;;;;;;;54.27;25.83;;;;;;;;;;5009817;28;20651;-87
2020/12/02 01:56:14;;;;;;;50.50;24.77;;;;;;;;;;5033650;28;20607;-87
2020/12/02 01:59:37;;;;;;;50.80;24.13;;;;;;;;;;5020963;28;20591;-86
2020/12/02 02:02:53;;;;;;;48.60;22.97;;;;;;;;;;5009695;28;20642;-87
2020/12/02 02:06:00;;;;;;;48.57;23.50;;;;;;;;;;5021339;28;20626;-86
2020/12/02 02:09:04;;;;;;;44.60;22.33;;;;;;;;;;4997857;28;20982;-87
2020/12/02 02:12:23;;;;;;;42.43;21.30;;;;;;;;;;5021309;28;20633;-86
2020/12/02 02:15:54;;;;;;;39.20;19.43;;;;;;;;;;5009845;28;20583;-86
2020/12/02 02:18:59;;;;;;;38.33;19.27;;;;;;;;;;5009850;28;20954;-87
2020/12/02 02:22:03;;;;;;;35.17;19.83;;;;;;;;;;4998806;28;20630;-86
2020/12/02 02:25:11;;;;;;;35.10;18.63;;;;;;;;;;5012494;28;20578;-87
2020/12/02 02:28:16;;;;;;;35.47;18.07;;;;;;;;;;5024629;28;20951;-87
2020/12/02 02:31:23;;;;;;;33.93;18.60;;;;;;;;;;5013277;28;20543;-85
2020/12/02 02:34:29;;;;;;;36.47;19.30;;;;;;;;;;4995517;28;20677;-88
2020/12/02 02:37:33;;;;;;;31.00;18.40;;;;;;;;;;5021415;28;20658;-87
2020/12/02 02:40:38;;;;;;;34.43;19.63;;;;;;;;;;5012984;28;20618;-87
2020/12/02 02:43:42;;;;;;;31.73;16.77;;;;;;;;;;5025044;28;20682;-87
2020/12/02 02:46:49;;;;;;;39.43;19.93;;;;;;;;;;5013247;28;20606;-86
2020/12/02 02:49:53;;;;;;;34.77;18.90;;;;;;;;;;5036545;28;20547;-86
2020/12/02 02:52:57;;;;;;;32.43;17.53;;;;;;;;;;5035261;28;20657;-87
2020/12/02 02:56:02;;;;;;;34.13;19.17;;;;;;;;;;5019890;28;20625;-87
2020/12/02 02:59:07;;;;;;;38.07;19.30;;;;;;;;;;5024531;28;20595;-87
2020/12/02 03:02:12;;;;;;;34.87;19.53;;;;;;;;;;5035978;28;20641;-87
2020/12/02 03:05:17;;;;;;;38.00;20.13;;;;;;;;;;5023695;28;20587;-86
2020/12/02 03:08:21;;;;;;;38.40;19.80;;;;;;;;;;5007222;28;20582;-87
2020/12/02 03:11:25;;;;;;;38.93;19.87;;;;;;;;;;5023962;28;20555;-87
2020/12/02 03:14:29;;;;;;;41.77;20.03;;;;;;;;;;5023992;28;20543;-86
2020/12/02 03:17:33;;;;;;;36.57;20.47;;;;;;;;;;5009608;28;20638;-87
2020/12/02 03:20:44;;;;;;;41.30;21.27;;;;;;;;;;5012929;28;20547;-86
2020/12/02 03:23:50;;;;;;;42.50;20.40;;;;;;;;;;5023781;28;20626;-86
2020/12/02 03:26:54;;;;;;;47.70;21.37;;;;;;;;;;5012543;28;20598;-87
2020/12/02 03:29:59;;;;;;;48.37;22.63;;;;;;;;;;5000920;28;21175;-86
2020/12/02 03:33:05;;;;;;;49.23;21.30;;;;;;;;;;5033243;28;20649;-87
2020/12/02 03:36:14;;;;;;;47.50;21.53;;;;;;;;;;5011917;28;20599;-86
2020/12/02 03:39:19;;;;;;;51.80;22.30;;;;;;;;;;5012535;28;20551;-87
2020/12/02 03:42:23;;;;;;;46.20;21.50;;;;;;;;;;5011627;28;21263;-87
2020/12/02 03:45:27;;;;;;;61.67;22.63;;;;;;;;;;5011906;28;20598;-86
2020/12/02 03:48:31;;;;;;;53.83;22.87;;;;;;;;;;5012205;28;20594;-86
2020/12/02 03:51:36;;;;;;;49.60;21.80;;;;;;;;;;5011807;28;20602;-87
2020/12/02 03:54:40;;;;;;;51.83;22.33;;;;;;;;;;5022926;28;21168;-87
2020/12/02 03:57:44;;;;;;;52.87;23.03;;;;;;;;;;5011196;28;20638;-87
2020/12/02 04:00:48;;;;;;;52.17;21.37;;;;;;;;;;5014035;28;20626;-87
2020/12/02 04:03:53;;;;;;;47.23;20.73;;;;;;;;;;5022582;28;21259;-86
2020/12/02 04:06:57;;;;;;;49.70;19.67;;;;;;;;;;5022937;28;20595;-87
2020/12/02 04:10:05;;;;;;;47.03;20.80;;;;;;;;;;5023590;28;20546;-87
2020/12/02 04:13:09;;;;;;;41.27;18.40;;;;;;;;;;5000348;28;20651;-87
2020/12/02 04:16:13;;;;;;;46.53;18.80;;;;;;;;;;5011344;28;20603;-87
2020/12/02 04:19:17;;;;;;;37.23;16.60;;;;;;;;;;5034993;28;20931;-87
2020/12/02 04:22:21;;;;;;;43.23;17.70;;;;;;;;;;5034857;28;21262;-87
2020/12/02 04:25:26;;;;;;;40.63;17.70;;;;;;;;;;5023216;28;20555;-86
2020/12/02 04:28:30;;;;;;;39.47;17.53;;;;;;;;;;5002307;28;20587;-86
2020/12/02 04:31:34;;;;;;;38.03;16.73;;;;;;;;;;5011559;28;20606;-86
2020/12/02 04:34:38;;;;;;;35.00;17.90;;;;;;;;;;5011340;28;20603;-87
2020/12/02 04:37:43;;;;;;;39.03;16.37;;;;;;;;;;5010365;28;20630;-87
2020/12/02 04:40:46;;;;;;;39.70;16.50;;;;;;;;;;5022198;28;20630;-86
2020/12/02 04:43:54;;;;;;;35.87;16.13;;;;;;;;;;5022054;28;21267;-86
2020/12/02 04:46:58;;;;;;;37.47;16.47;;;;;;;;;;5010220;28;20594;-86
2020/12/02 04:50:26;;;;;;;37.13;17.63;;;;;;;;;;5003079;28;20590;-86
2020/12/02 04:53:34;;;;;;;41.80;17.97;;;;;;;;;;5033611;28;20625;-86
2020/12/02 04:56:43;;;;;;;42.80;19.13;;;;;;;;;;5021681;28;21148;-84
2020/12/02 04:59:47;;;;;;;41.80;17.10;;;;;;;;;;5004985;28;20623;-86
2020/12/02 05:02:51;;;;;;;43.47;18.43;;;;;;;;;;5022368;28;21031;-87
2020/12/02 05:06:01;;;;;;;41.00;16.73;;;;;;;;;;5000194;28;20547;-87
2020/12/02 05:09:24;;;;;;;39.37;19.23;;;;;;;;;;5010608;28;21188;-86
2020/12/02 05:12:37;;;;;;;42.90;18.87;;;;;;;;;;4999045;28;20650;-86
2020/12/02 05:15:41;;;;;;;43.33;18.17;;;;;;;;;;4999091;28;20622;-87
2020/12/02 05:18:56;;;;;;;42.00;19.57;;;;;;;;;;5013128;28;20642;-86
2020/12/02 05:22:09;;;;;;;48.93;20.17;;;;;;;;;;5021094;28;20650;-86
2020/12/02 05:25:16;;;;;;;46.93;21.43;;;;;;;;;;5010647;28;20595;-86
2020/12/02 05:28:27;;;;;;;49.73;21.13;;;;;;;;;;5015242;28;20618;-86
2020/12/02 05:31:33;;;;;;;47.97;21.53;;;;;;;;;;5021883;28;20599;-86
2020/12/02 05:34:37;;;;;;;55.07;22.70;;;;;;;;;;5022087;28;20598;-83
2020/12/02 05:37:51;;;;;;;52.67;23.03;;;;;;;;;;5010239;28;20646;-83
2020/12/02 05:40:57;;;;;;;59.40;24.73;;;;;;;;;;5010837;28;20559;-83
2020/12/02 05:44:13;;;;;;;56.27;22.83;;;;;;;;;;5009459;28;20654;-83
2020/12/02 05:47:19;;;;;;;54.47;23.33;;;;;;;;;;5009994;28;20590;-83
2020/12/02 05:50:24;;;;;;;57.03;23.63;;;;;;;;;;5021332;28;20543;-83
2020/12/02 05:53:44;;;;;;;60.03;23.13;;;;;;;;;;5009499;28;20650;-83
2020/12/02 05:56:48;;;;;;;56.33;24.00;;;;;;;;;;5021318;28;20955;-84
2020/12/02 05:59:56;;;;;;;54.10;22.83;;;;;;;;;;5012007;28;20579;-83
2020/12/02 06:03:01;;;;;;;60.20;23.57;;;;;;;;;;5013756;28;20653;-83
2020/12/02 06:06:11;;;;;;;63.90;23.93;;;;;;;;;;5025237;28;20966;-83
2020/12/02 06:09:15;;;;;;;55.53;23.90;;;;;;;;;;5002726;28;20667;-82
2020/12/02 06:12:23;;;;;;;57.87;23.37;;;;;;;;;;5013672;28;21247;-83
2020/12/02 06:15:34;;;;;;;42.77;20.07;;;;;;;;;;5013878;28;20546;-82
2020/12/02 06:18:39;;;;;;;52.67;19.83;;;;;;;;;;5019811;28;20635;-83
2020/12/02 06:21:55;;;;;;;47.23;19.50;;;;;;;;;;5036705;28;20551;-83
2020/12/02 06:25:00;;;;;;;47.23;18.67;;;;;;;;;;5003093;28;20626;-82
2020/12/02 06:28:04;;;;;;;47.40;18.80;;;;;;;;;;5013698;28;20602;-82
2020/12/02 06:31:17;;;;;;;45.73;19.13;;;;;;;;;;5013687;28;20546;-83
2020/12/02 06:34:24;;;;;;;48.20;19.77;;;;;;;;;;5002264;28;21171;-82
2020/12/02 06:37:28;;;;;;;48.07;19.90;;;;;;;;;;5037188;28;20599;-82
2020/12/02 06:40:32;;;;;;;46.20;19.40;;;;;;;;;;5024603;28;20578;-82
2020/12/02 06:43:51;;;;;;;40.70;18.73;;;;;;;;;;5013446;28;20673;-83
2020/12/02 06:46:55;;;;;;;40.97;18.20;;;;;;;;;;5017212;28;20637;-82
2020/12/02 06:50:04;;;;;;;40.53;18.83;;;;;;;;;;5001085;28;21211;-82
2020/12/02 06:53:19;;;;;;;46.10;20.13;;;;;;;;;;5036453;28;20634;-82
2020/12/02 06:56:24;;;;;;;40.10;19.03;;;;;;;;;;5024314;28;21161;-84
2020/12/02 06:59:28;;;;;;;44.20;19.80;;;;;;;;;;5017052;28;20631;-83
2020/12/02 07:02:41;;;;;;;46.10;19.80;;;;;;;;;;5004863;28;20631;-84
2020/12/02 07:05:45;;;;;;;41.07;18.50;;;;;;;;;;4995615;28;20588;-83
2020/12/02 07:09:14;;;;;;;42.30;19.93;;;;;;;;;;4994248;28;21190;-83
2020/12/02 07:12:22;;;;;;;41.27;18.83;;;;;;;;;;5006802;28;20653;-84
2020/12/02 07:15:26;;;;;;;41.63;20.60;;;;;;;;;;5013307;28;20554;-83
2020/12/02 07:18:31;;;;;;;48.77;21.97;;;;;;;;;;5013455;28;20963;-84
2020/12/02 07:21:50;;;;;;;46.73;22.13;;;;;;;;;;5024108;28;20598;-83
2020/12/02 07:25:01;;;;;;;39.90;19.90;;;;;;;;;;5024208;28;20602;-84
2020/12/02 07:28:13;;;;;;;35.93;18.90;;;;;;;;;;5013046;28;20598;-82
2020/12/02 07:31:23;;;;;;;42.67;19.73;;;;;;;;;;5013038;28;20642;-83
2020/12/02 07:34:28;;;;;;;39.53;18.03;;;;;;;;;;5024653;28;20547;-83
2020/12/02 07:37:32;;;;;;;40.40;19.17;;;;;;;;;;5024571;28;20652;-84
2020/12/02 07:40:38;;;;;;;46.17;20.27;;;;;;;;;;5013592;28;20555;-84
2020/12/02 07:43:46;;;;;;;39.30;18.87;;;;;;;;;;5016059;28;20647;-84
2020/12/02 07:46:52;;;;;;;37.60;19.97;;;;;;;;;;5008112;28;20634;-84
2020/12/02 07:50:01;;;;;;;35.93;19.13;;;;;;;;;;5001843;28;20954;-84
2020/12/02 07:53:33;;;;;;;38.97;19.40;;;;;;;;;;5016323;28;20995;-84
2020/12/02 07:56:39;;;;;;;38.23;18.47;;;;;;;;;;5014470;28;20587;-83
2020/12/02 08:00:14;;;;;;;39.03;19.07;;;;;;;;;;5023082;28;20635;-83
2020/12/02 08:03:30;;;;;;;36.73;19.10;;;;;;;;;;5023486;28;20631;-84
2020/12/02 08:06:44;;;;;;;34.27;18.03;;;;;;;;;;5022655;28;20595;-84
2020/12/02 08:09:54;;;;;;;35.93;19.20;;;;;;;;;;5023536;28;20540;-84
2020/12/02 08:13:02;;;;;;;42.37;20.10;;;;;;;;;;4992070;28;20971;-83
2020/12/02 08:16:06;;;;;;;39.50;21.80;;;;;;;;;;4981222;28;20536;-83
2020/12/02 08:19:12;;;;;;;40.73;20.50;;;;;;;;;;4991964;28;20603;-83
2020/12/02 08:22:27;;;;;;;44.13;21.03;;;;;;;;;;4992263;28;20639;-84
2020/12/02 08:25:35;;;;;;;46.40;22.93;;;;;;;;;;5031647;28;20590;-83
2020/12/02 08:28:43;;;;;;;57.47;25.47;;;;;;;;;;5000651;28;20587;-83
2020/12/02 08:31:59;;;;;;;63.87;28.73;;;;;;;;;;5020632;28;20611;-83
2020/12/02 08:35:28;;;;;;;57.63;25.37;;;;;;;;;;5035538;28;20954;-83
2020/12/02 08:38:37;;;;;;;45.80;22.97;;;;;;;;;;5011768;28;21148;-84
2020/12/02 08:41:46;;;;;;;34.23;18.67;;;;;;;;;;5012592;28;20626;-84
2020/12/02 08:45:16;;;;;;;34.97;18.87;;;;;;;;;;5012015;28;20551;-83
2020/12/02 08:48:21;;;;;;;37.70;19.17;;;;;;;;;;5023143;28;20535;-83
2020/12/02 08:51:26;;;;;;;38.77;18.93;;;;;;;;;;5022935;28;20551;-83
2020/12/02 08:54:30;;;;;;;34.27;17.40;;;;;;;;;;5022585;28;20595;-84
2020/12/02 08:57:34;;;;;;;33.07;17.93;;;;;;;;;;5034545;28;20602;-83
2020/12/02 09:00:38;;;;;;;33.50;17.90;;;;;;;;;;5011994;28;20536;-83
2020/12/02 09:03:43;;;;;;;37.70;19.47;;;;;;;;;;5023118;28;21196;-83
2020/12/02 09:06:48;;;;;;;34.50;19.30;;;;;;;;;;5022376;28;20599;-83
2020/12/02 09:09:52;;;;;;;42.60;20.70;;;;;;;;;;5000116;28;20544;-83
2020/12/02 09:12:58;;;;;;;36.70;18.63;;;;;;;;;;5000232;28;21255;-83
2020/12/02 09:16:02;;;;;;;39.10;19.13;;;;;;;;;;5022477;28;20614;-83
2020/12/02 09:19:10;;;;;;;36.30;19.67;;;;;;;;;;5002793;28;20998;-83
2020/12/02 09:22:14;;;;;;;35.37;19.20;;;;;;;;;;5002646;28;20647;-83
2020/12/02 09:25:19;;;;;;;34.87;18.03;;;;;;;;;;5009864;28;20606;-83
2020/12/02 09:28:23;;;;;;;32.90;17.97;;;;;;;;;;5000818;28;20590;-83
2020/12/02 09:31:29;;;;;;;38.77;19.77;;;;;;;;;;5010716;28;20966;-84
2020/12/02 09:34:35;;;;;;;36.47;19.07;;;;;;;;;;4999559;28;20594;-83
2020/12/02 09:37:39;;;;;;;36.97;19.23;;;;;;;;;;4999843;28;20618;-83
2020/12/02 09:40:43;;;;;;;36.97;19.20;;;;;;;;;;4999951;28;20603;-83
2020/12/02 09:44:25;;;;;;;34.03;18.23;;;;;;;;;;5022506;28;20634;-83
2020/12/02 09:47:29;;;;;;;35.43;18.23;;;;;;;;;;5034439;28;20626;-83
2020/12/02 09:50:33;;;;;;;34.07;18.93;;;;;;;;;;5022635;28;20590;-83
2020/12/02 09:53:38;;;;;;;41.83;22.67;;;;;;;;;;5010950;28;20650;-83
2020/12/02 09:56:43;;;;;;;39.70;20.30;;;;;;;;;;5022389;28;20630;-83
2020/12/02 09:59:47;;;;;;;32.73;18.90;;;;;;;;;;5022111;28;20598;-83
2020/12/02 10:03:03;;;;;;;33.93;18.70;;;;;;;;;;5010709;28;21022;-83
2020/12/02 10:06:41;;;;;;;36.43;19.03;;;;;;;;;;5023390;28;20599;-83
2020/12/02 10:10:12;;;;;;;35.97;18.57;;;;;;;;;;5010406;28;20946;-83
2020/12/02 10:13:34;;;;;;;39.23;22.17;;;;;;;;;;5033372;28;20645;-83
2020/12/02 10:16:47;;;;;;;42.43;23.87;;;;;;;;;;5009954;28;20600;-84
2020/12/02 10:20:01;;;;;;;41.33;22.17;;;;;;;;;;5021683;28;20638;-85
2020/12/02 10:23:49;;;;;;;33.87;18.70;;;;;;;;;;5033363;28;20634;-83
2020/12/02 10:27:11;;;;;;;40.43;20.93;;;;;;;;;;5022245;28;21090;-83
2020/12/02 10:30:19;;;;;;;35.70;19.17;;;;;;;;;;5021462;28;20591;-84
2020/12/02 10:33:34;;;;;;;36.93;18.90;;;;;;;;;;5010157;28;20654;-84
2020/12/02 10:36:44;;;;;;;31.53;18.53;;;;;;;;;;5021608;28;20670;-84
2020/12/02 10:39:48;;;;;;;37.00;20.33;;;;;;;;;;5021418;28;20666;-83
2020/12/02 10:43:04;;;;;;;33.03;20.00;;;;;;;;;;5021278;28;20642;-83
2020/12/02 10:46:20;;;;;;;34.20;18.67;;;;;;;;;;5014869;28;20548;-83
2020/12/02 10:49:29;;;;;;;37.23;20.40;;;;;;;;;;5006097;28;20618;-83
2020/12/02 10:52:33;;;;;;;35.10;19.50;;;;;;;;;;5013753;28;20630;-83
2020/12/02 10:55:37;;;;;;;32.77;17.70;;;;;;;;;;5013329;28;20605;-83
2020/12/02 10:58:44;;;;;;;36.70;20.30;;;;;;;;;;5014623;28;20546;-85
2020/12/02 11:01:48;;;;;;;34.90;19.50;;;;;;;;;;5025414;28;20547;-85
2020/12/02 11:04:53;;;;;;;37.90;19.47;;;;;;;;;;5002318;28;20583;-84
2020/12/02 11:08:07;;;;;;;35.43;18.97;;;;;;;;;;5002960;28;20602;-84
2020/12/02 11:11:30;;;;;;;37.30;19.83;;;;;;;;;;5024215;28;20599;-83
2020/12/02 11:15:11;;;;;;;35.07;19.60;;;;;;;;;;5024184;28;20590;-83
2020/12/02 11:18:57;;;;;;;31.60;19.17;;;;;;;;;;5006907;28;20655;-84
2020/12/02 11:22:12;;;;;;;35.40;19.07;;;;;;;;;;5023957;28;20634;-84
2020/12/02 11:25:26;;;;;;;30.70;17.10;;;;;;;;;;5035748;28;20963;-84
2020/12/02 11:28:30;;;;;;;33.47;18.63;;;;;;;;;;5023488;28;20598;-84
2020/12/02 11:31:57;;;;;;;31.67;18.23;;;;;;;;;;5023183;28;20994;-85
2020/12/02 11:35:32;;;;;;;30.07;18.10;;;;;;;;;;5018534;28;20603;-87
2020/12/02 11:38:51;;;;;;;29.27;17.07;;;;;;;;;;5023935;28;20551;-86
2020/12/02 11:42:07;;;;;;;32.83;18.50;;;;;;;;;;5013473;28;20611;-87
2020/12/02 11:45:14;;;;;;;30.03;17.13;;;;;;;;;;5023241;28;20602;-87
2020/12/02 11:48:32;;;;;;;35.93;18.87;;;;;;;;;;4993031;28;20571;-87
2020/12/02 11:51:46;;;;;;;32.47;18.00;;;;;;;;;;5000497;28;20586;-87
2020/12/02 11:54:54;;;;;;;28.37;17.03;;;;;;;;;;5021411;28;20599;-87
2020/12/02 11:58:00;;;;;;;33.17;16.00;;;;;;;;;;5023402;28;20563;-87
2020/12/02 12:01:16;;;;;;;33.60;17.57;;;;;;;;;;5012347;28;20670;-86
2020/12/02 12:04:33;;;;;;;32.17;18.60;;;;;;;;;;5035285;28;21168;-87
2020/12/02 12:07:51;;;;;;;34.37;18.30;;;;;;;;;;5000474;28;20970;-88
2020/12/02 12:11:06;;;;;;;32.13;17.73;;;;;;;;;;5011539;28;20556;-89
2020/12/02 12:14:28;;;;;;;33.13;18.03;;;;;;;;;;5011416;28;20595;-88
2020/12/02 12:17:38;;;;;;;33.13;17.27;;;;;;;;;;5000199;28;20587;-86
2020/12/02 12:20:48;;;;;;;36.00;19.33;;;;;;;;;;5011371;28;20611;-88
2020/12/02 12:23:59;;;;;;;29.63;17.73;;;;;;;;;;4998807;28;21007;-88
2020/12/02 12:27:04;;;;;;;35.60;19.30;;;;;;;;;;5011287;28;20598;-88
2020/12/02 12:30:08;;;;;;;43.07;19.63;;;;;;;;;;5022960;28;20610;-88
2020/12/02 12:33:24;;;;;;;33.40;18.00;;;;;;;;;;5010691;28;20634;-87
2020/12/02 12:36:33;;;;;;;30.70;17.50;;;;;;;;;;5013832;28;20603;-88
2020/12/02 12:39:48;;;;;;;33.97;18.37;;;;;;;;;;5010985;28;20666;-87
2020/12/02 12:42:56;;;;;;;31.77;17.50;;;;;;;;;;5011363;28;20662;-88
2020/12/02 12:46:10;;;;;;;33.67;18.80;;;;;;;;;;5029074;28;20957;-88
2020/12/02 12:49:15;;;;;;;33.53;18.20;;;;;;;;;;5031061;28;20579;-89
2020/12/02 12:52:25;;;;;;;34.80;18.00;;;;;;;;;;5026913;28;20997;-88
2020/12/02 12:55:30;;;;;;;32.63;18.07;;;;;;;;;;5010840;28;20598;-84
2020/12/02 12:58:34;;;;;;;29.60;17.23;;;;;;;;;;5022378;28;20555;-85
2020/12/02 13:01:39;;;;;;;32.97;18.00;;;;;;;;;;5010316;28;20547;-86
2020/12/02 13:04:43;;;;;;;28.37;16.53;;;;;;;;;;4991490;28;20548;-87
2020/12/02 13:07:53;;;;;;;29.97;18.03;;;;;;;;;;5001922;28;20590;-87
2020/12/02 13:11:02;;;;;;;28.97;17.77;;;;;;;;;;5010954;28;20559;-87
2020/12/02 13:14:13;;;;;;;31.17;17.23;;;;;;;;;;5010491;28;21164;-87
2020/12/02 13:17:33;;;;;;;36.20;17.37;;;;;;;;;;5017775;28;20608;-87
2020/12/02 13:21:14;;;;;;;28.60;16.83;;;;;;;;;;4990903;28;20663;-82
2020/12/02 13:24:34;;;;;;;28.33;16.33;;;;;;;;;;4991106;28;20572;-83
2020/12/02 13:27:56;;;;;;;26.17;15.30;;;;;;;;;;5017379;28;21184;-83
2020/12/02 13:31:10;;;;;;;27.43;15.10;;;;;;;;;;5021913;28;20923;-83
2020/12/02 13:34:14;;;;;;;30.47;16.13;;;;;;;;;;5033710;28;20626;-83
2020/12/02 13:37:19;;;;;;;28.10;15.37;;;;;;;;;;5010414;28;20595;-83
2020/12/02 13:40:23;;;;;;;30.57;17.00;;;;;;;;;;5015446;28;20642;-83
2020/12/02 13:43:30;;;;;;;31.07;15.67;;;;;;;;;;5021571;28;20638;-83
2020/12/02 13:46:35;;;;;;;30.97;15.50;;;;;;;;;;5021346;28;20606;-83
2020/12/02 13:49:41;;;;;;;29.93;16.13;;;;;;;;;;5021619;28;20586;-83
2020/12/02 13:52:53;;;;;;;30.27;16.73;;;;;;;;;;5009996;28;20666;-83
2020/12/02 13:56:08;;;;;;;29.57;15.57;;;;;;;;;;5010391;28;20563;-83
2020/12/02 13:59:24;;;;;;;27.67;15.50;;;;;;;;;;5033538;28;20595;-83
2020/12/02 14:03:04;;;;;;;27.67;14.87;;;;;;;;;;5033545;28;20974;-83
2020/12/02 14:06:38;;;;;;;24.73;15.10;;;;;;;;;;5010485;28;20551;-82
2020/12/02 14:09:59;;;;;;;29.07;15.50;;;;;;;;;;5021355;28;20598;-83
2020/12/02 14:13:09;;;;;;;27.17;15.10;;;;;;;;;;4998967;28;20666;-83
2020/12/02 14:16:13;;;;;;;27.43;15.87;;;;;;;;;;5033082;28;20595;-83
2020/12/02 14:19:17;;;;;;;31.20;15.93;;;;;;;;;;5010060;28;20627;-83
2020/12/02 14:22:24;;;;;;;27.33;15.47;;;;;;;;;;5024902;28;21240;-83
2020/12/02 14:25:32;;;;;;;30.40;15.63;;;;;;;;;;5025869;28;20579;-86
2020/12/02 14:28:36;;;;;;;29.30;16.83;;;;;;;;;;5013497;28;20970;-86
2020/12/02 14:31:40;;;;;;;28.73;15.83;;;;;;;;;;5013130;28;20594;-86
2020/12/02 14:34:44;;;;;;;28.53;15.17;;;;;;;;;;5026159;28;20606;-89
2020/12/02 14:37:58;;;;;;;29.50;15.60;;;;;;;;;;5013064;28;20622;-85
2020/12/02 14:41:09;;;;;;;30.63;15.87;;;;;;;;;;5025542;28;21184;-85
2020/12/02 14:44:13;;;;;;;31.67;15.53;;;;;;;;;;5016204;28;20598;-85
2020/12/02 14:47:18;;;;;;;32.57;15.57;;;;;;;;;;5015038;28;20591;-85
2020/12/02 14:50:22;;;;;;;29.37;15.23;;;;;;;;;;5001801;28;20618;-85
2020/12/02 14:53:28;;;;;;;26.90;15.60;;;;;;;;;;5024902;28;20645;-86
2020/12/02 14:56:51;;;;;;;31.50;16.70;;;;;;;;;;5031608;28;20606;-85
2020/12/02 15:00:18;;;;;;;33.87;18.63;;;;;;;;;;5023798;28;20595;-86
2020/12/02 15:03:22;;;;;;;29.63;16.60;;;;;;;;;;5027202;28;21002;-86
2020/12/02 15:07:10;;;;;;;30.23;15.67;;;;;;;;;;5013335;28;20598;-86
2020/12/02 15:10:19;;;;;;;26.77;14.37;;;;;;;;;;5013145;28;20594;-85
2020/12/02 15:13:25;;;;;;;29.83;16.07;;;;;;;;;;5024330;28;20638;-85
2020/12/02 15:16:29;;;;;;;28.73;15.57;;;;;;;;;;5013107;28;20618;-86
2020/12/02 15:19:34;;;;;;;29.67;16.57;;;;;;;;;;5023622;28;20599;-87
2020/12/02 15:22:38;;;;;;;29.87;15.63;;;;;;;;;;5012544;28;20626;-86
2020/12/02 15:25:43;;;;;;;29.60;15.93;;;;;;;;;;5024459;28;20591;-86
2020/12/02 15:28:47;;;;;;;32.20;17.97;;;;;;;;;;5024397;28;20547;-86
2020/12/02 15:32:01;;;;;;;29.13;15.47;;;;;;;;;;5011041;28;20622;-86
2020/12/02 15:35:05;;;;;;;30.80;16.07;;;;;;;;;;5012832;28;20555;-86
2020/12/02 15:38:11;;;;;;;32.30;16.70;;;;;;;;;;5024214;28;20566;-85
2020/12/02 15:41:23;;;;;;;28.47;16.30;;;;;;;;;;5012468;28;20734;-86
2020/12/02 15:44:46;;;;;;;30.00;16.77;;;;;;;;;;5023896;28;20547;-85
2020/12/02 15:47:53;;;;;;;32.63;17.47;;;;;;;;;;5023572;28;20601;-85
2020/12/02 15:51:13;;;;;;;32.57;16.87;;;;;;;;;;5023412;28;20623;-86
2020/12/02 15:54:23;;;;;;;30.37;15.50;;;;;;;;;;5012058;28;20951;-86
2020/12/02 15:57:45;;;;;;;31.33;16.33;;;;;;;;;;5014426;28;20618;-86
2020/12/02 16:00:54;;;;;;;30.80;16.33;;;;;;;;;;4992418;28;20608;-86
2020/12/02 16:04:45;;;;;;;35.23;18.40;;;;;;;;;;5015678;28;20643;-86
2020/12/02 16:08:28;;;;;;;33.27;17.17;;;;;;;;;;4979898;28;20626;-86
2020/12/02 16:11:35;;;;;;;31.63;16.43;;;;;;;;;;5023313;28;20543;-86
2020/12/02 16:14:14;;;;;;;29.77;16.07;;;;;;;;;;5021204;23;20679;-72
2020/12/02 16:17:18;;;;;;;30.70;15.97;;;;;;;;;;5022299;28;20638;-72
2020/12/02 16:20:27;;;;;;;33.33;17.87;;;;;;;;;;5034228;28;20543;-72
2020/12/02 16:23:36;;;;;;;32.23;16.93;;;;;;;;;;5032567;28;20879;-72
2020/12/02 16:26:42;;;;;;;34.20;17.40;;;;;;;;;;5018813;28;20654;-72
2020/12/02 16:29:46;;;;;;;29.30;16.33;;;;;;;;;;5032872;28;20543;-72
2020/12/02 16:32:57;;;;;;;36.67;18.30;;;;;;;;;;5028853;28;20587;-72
2020/12/02 16:36:25;;;;;;;31.07;16.57;;;;;;;;;;5034003;28;21311;-72
2020/12/02 16:39:31;;;;;;;30.87;16.23;;;;;;;;;;5013815;28;20552;-72
2020/12/02 16:42:44;;;;;;;31.50;17.23;;;;;;;;;;5014319;28;20931;-73
2020/12/02 16:45:52;;;;;;;34.10;17.70;;;;;;;;;;5014267;28;20635;-72
2020/12/02 16:49:27;;;;;;;38.40;17.87;;;;;;;;;;5014273;28;20588;-72
2020/12/02 16:52:44;;;;;;;31.43;16.40;;;;;;;;;;5013275;28;20592;-72
2020/12/02 16:55:54;;;;;;;34.27;17.67;;;;;;;;;;5013198;28;20999;-71
2020/12/02 16:59:02;;;;;;;35.13;16.83;;;;;;;;;;5013342;28;20544;-72
2020/12/02 17:02:20;;;;;;;33.23;17.90;;;;;;;;;;5015297;28;20608;-72
2020/12/02 17:05:26;;;;;;;31.53;16.80;;;;;;;;;;5029501;28;20611;-72
2020/12/02 17:08:31;;;;;;;30.00;16.70;;;;;;;;;;5013974;28;20548;-72
2020/12/02 17:12:03;;;;;;;32.77;17.03;;;;;;;;;;5024185;28;20591;-72
2020/12/02 17:15:19;;;;;;;30.33;17.53;;;;;;;;;;5013730;28;20556;-73
2020/12/02 17:18:36;;;;;;;33.93;18.07;;;;;;;;;;5032770;28;20555;-73
2020/12/02 17:22:18;;;;;;;37.53;18.87;;;;;;;;;;5032673;28;20595;-72
2020/12/02 17:25:39;;;;;;;36.50;19.07;;;;;;;;;;5013337;28;20552;-73
2020/12/02 17:29:16;;;;;;;31.67;17.30;;;;;;;;;;5016046;28;20584;-72
2020/12/02 17:32:33;;;;;;;34.00;17.20;;;;;;;;;;5028250;28;20583;-72
2020/12/02 17:35:46;;;;;;;34.63;17.43;;;;;;;;;;5033155;28;21009;-73
2020/12/02 17:39:15;;;;;;;37.00;17.20;;;;;;;;;;5012799;28;20583;-73
2020/12/02 17:42:27;;;;;;;30.57;17.37;;;;;;;;;;5031016;28;20621;-73
2020/12/02 17:45:41;;;;;;;35.00;18.17;;;;;;;;;;5035475;28;20659;-72
2020/12/02 17:48:59;;;;;;;35.87;19.07;;;;;;;;;;5025310;28;20611;-72
2020/12/02 17:52:11;;;;;;;42.33;20.50;;;;;;;;;;5018382;28;20610;-73
2020/12/02 17:55:21;;;;;;;44.53;19.13;;;;;;;;;;5023580;28;20596;-72
2020/12/02 17:58:43;;;;;;;38.47;18.37;;;;;;;;;;5019439;28;20595;-72
2020/12/02 18:02:21;;;;;;;33.70;17.37;;;;;;;;;;5036175;28;20603;-73
2020/12/02 18:05:40;;;;;;;33.33;17.77;;;;;;;;;;5029442;28;20599;-72
2020/12/02 18:09:01;;;;;;;37.27;17.47;;;;;;;;;;5017168;28;20604;-73
2020/12/02 18:12:30;;;;;;;33.50;17.80;;;;;;;;;;5016827;28;20615;-73
2020/12/02 18:15:43;;;;;;;35.57;18.27;;;;;;;;;;5016444;28;20634;-73
2020/12/02 18:18:57;;;;;;;34.50;18.57;;;;;;;;;;5016781;28;20568;-72
2020/12/02 18:22:17;;;;;;;36.40;17.70;;;;;;;;;;5016851;28;20608;-73
2020/12/02 18:25:52;;;;;;;33.30;18.50;;;;;;;;;;5027249;28;20975;-72
2020/12/02 18:29:18;;;;;;;35.10;18.70;;;;;;;;;;5036414;28;20547;-73
2020/12/02 18:32:39;;;;;;;37.30;19.80;;;;;;;;;;5035638;28;20571;-72